createdAt,value
2022-09-25T00:02:01.670Z,100.00
2022-09-25T00:07:04.978Z,100.00
2022-09-25T00:12:08.278Z,100.00
2022-09-25T00:17:12.091Z,100.00
2022-09-25T00:22:21.754Z,100.00
2022-09-25T00:27:25.581Z,100.00
2022-09-25T00:32:29.485Z,100.00
2022-09-25T00:37:33.842Z,100.00
2022-09-25T00:42:37.567Z,100.00
2022-09-25T00:47:41.215Z,100.00
2022-09-25T00:52:44.906Z,100.00
2022-09-25T00:57:48.857Z,100.00
2022-09-25T01:02:53.547Z,100.00
2022-09-25T01:07:57.366Z,100.00
2022-09-25T01:13:00.735Z,100.00
2022-09-25T01:18:04.366Z,100.00
2022-09-25T01:23:08.323Z,100.00
2022-09-25T01:28:12.159Z,100.00
2022-09-25T01:33:15.371Z,100.00
2022-09-25T01:38:19.549Z,100.00
2022-09-25T01:43:23.100Z,100.00
2022-09-25T01:48:26.615Z,100.00
2022-09-25T01:53:29.892Z,100.00
2022-09-25T01:58:34.364Z,100.00
2022-09-25T02:03:39.191Z,100.00
2022-09-25T02:08:44.299Z,100.00
2022-09-25T02:13:47.906Z,100.00
2022-09-25T02:19:09.089Z,100.00
2022-09-25T02:24:15.489Z,100.00
2022-09-25T02:29:19.160Z,100.00
2022-09-25T02:34:22.374Z,100.00
2022-09-25T02:39:25.769Z,100.00
2022-09-25T02:44:29.446Z,100.00
2022-09-25T02:49:32.710Z,100.00
2022-09-25T02:54:35.425Z,100.00
2022-09-25T02:59:38.641Z,100.00
2022-09-25T03:04:41.842Z,100.00
2022-09-25T03:09:46.880Z,100.00
2022-09-25T03:14:53.423Z,100.00
2022-09-25T03:19:56.959Z,100.00
2022-09-25T03:25:00.134Z,100.00
2022-09-25T03:30:03.431Z,100.00
2022-09-25T03:35:06.208Z,100.00
2022-09-25T03:40:09.438Z,100.00
2022-09-25T03:45:12.125Z,100.00
2022-09-25T03:50:14.802Z,100.00
2022-09-25T03:55:17.905Z,100.00
2022-09-25T04:00:20.602Z,100.00
2022-09-25T04:05:23.671Z,100.00
2022-09-25T04:10:26.360Z,100.00
2022-09-25T04:15:29.078Z,100.00
2022-09-25T04:20:31.778Z,100.00
2022-09-25T04:25:34.510Z,100.00
2022-09-25T04:30:37.201Z,100.00
2022-09-25T04:35:39.889Z,100.00
2022-09-25T04:40:42.623Z,100.00
2022-09-25T04:45:48.982Z,100.00
2022-09-25T04:50:51.723Z,100.00
2022-09-25T04:55:55.967Z,100.00
2022-09-25T05:00:58.719Z,100.00
2022-09-25T05:06:01.558Z,100.00
2022-09-25T05:11:04.522Z,100.00
2022-09-25T05:16:07.458Z,100.00
2022-09-25T05:21:10.360Z,100.00
2022-09-25T05:26:13.175Z,100.00
2022-09-25T05:31:16.703Z,100.00
2022-09-25T05:36:19.765Z,100.00
2022-09-25T05:41:22.454Z,100.00
2022-09-25T05:46:25.246Z,100.00
2022-09-25T05:51:27.947Z,100.00
2022-09-25T05:56:30.671Z,100.00
2022-09-25T06:01:33.630Z,100.00
2022-09-25T06:06:36.463Z,100.00
2022-09-25T06:11:40.800Z,100.00
2022-09-25T06:16:43.932Z,100.00
2022-09-25T06:21:47.347Z,100.00
2022-09-25T06:26:50.270Z,100.00
2022-09-25T06:31:53.037Z,100.00
2022-09-25T06:36:55.757Z,100.00
2022-09-25T06:41:58.477Z,100.00
2022-09-25T06:47:01.785Z,100.00
2022-09-25T06:52:09.729Z,100.00
2022-09-25T06:57:12.803Z,100.00
2022-09-25T07:02:54.476Z,100.00
2022-09-25T07:07:57.154Z,100.00
2022-09-25T07:13:00.450Z,100.00
2022-09-25T07:18:03.653Z,100.00
2022-09-25T07:23:06.836Z,100.00
2022-09-25T07:28:10.038Z,100.00
2022-09-25T07:33:13.482Z,100.00
2022-09-25T07:38:16.770Z,100.00
2022-09-25T07:43:19.940Z,100.00
2022-09-25T07:48:23.360Z,100.00
2022-09-25T07:53:26.487Z,100.00
2022-09-25T07:58:29.714Z,100.00
2022-09-25T08:03:33.023Z,100.00
2022-09-25T08:08:36.153Z,100.00
2022-09-25T08:13:39.616Z,100.00
2022-09-25T08:18:42.921Z,100.00
2022-09-25T08:23:48.203Z,100.00
2022-09-25T08:28:52.171Z,100.00
2022-09-25T08:33:55.598Z,100.00
2022-09-25T08:39:09.077Z,100.00
2022-09-25T08:44:12.408Z,100.00
2022-09-25T08:49:15.761Z,100.00
2022-09-25T08:54:19.055Z,100.00
2022-09-25T08:59:23.365Z,100.00
2022-09-25T09:04:26.853Z,100.00
2022-09-25T09:09:30.146Z,100.00
2022-09-25T09:14:33.901Z,100.00
2022-09-25T09:19:38.272Z,100.00
2022-09-25T09:24:41.457Z,100.00
2022-09-25T09:29:44.733Z,100.00
2022-09-25T09:35:05.779Z,100.00
2022-09-25T09:40:09.902Z,100.00
2022-09-25T09:45:13.644Z,100.00
2022-09-25T09:50:17.328Z,100.00
2022-09-25T09:55:20.557Z,100.00
2022-09-25T10:00:24.180Z,100.00
2022-09-25T10:05:27.383Z,100.00
2022-09-25T10:10:30.763Z,100.00
2022-09-25T10:15:34.026Z,100.00
2022-09-25T10:20:37.292Z,100.00
2022-09-25T10:25:40.470Z,100.00
2022-09-25T10:30:43.780Z,100.00
2022-09-25T10:35:48.689Z,100.00
2022-09-25T10:40:52.164Z,100.00
2022-09-25T10:45:57.333Z,100.00
2022-09-25T10:51:01.102Z,100.00
2022-09-25T10:56:05.147Z,100.00
2022-09-25T11:01:13.601Z,100.00
2022-09-25T11:06:17.643Z,96.40
2022-09-25T11:11:20.801Z,95.43
2022-09-25T11:16:24.551Z,96.14
2022-09-25T11:21:27.831Z,94.72
2022-09-25T11:26:31.257Z,94.76
2022-09-25T11:31:35.058Z,96.27
2022-09-25T11:36:38.993Z,95.44
2022-09-25T11:41:42.280Z,95.27
2022-09-25T11:46:47.715Z,95.06
2022-09-25T11:51:51.322Z,97.72
2022-09-25T11:56:54.987Z,99.38
2022-09-25T12:01:58.216Z,98.37
2022-09-25T12:07:01.769Z,100.00
2022-09-25T12:12:08.772Z,99.35
2022-09-25T12:17:11.934Z,100.00
2022-09-25T12:22:15.824Z,100.00
2022-09-25T12:27:19.275Z,100.00
2022-09-25T12:32:22.698Z,100.00
2022-09-25T12:37:27.702Z,100.00
2022-09-25T12:42:32.406Z,98.20
2022-09-25T12:47:36.415Z,100.00
2022-09-25T12:52:39.830Z,100.00
2022-09-25T12:57:45.918Z,100.00
2022-09-25T13:02:49.523Z,100.00
2022-09-25T13:07:52.965Z,100.00
2022-09-25T13:12:56.934Z,100.00
2022-09-25T13:18:00.374Z,100.00
2022-09-25T13:23:04.708Z,100.00
2022-09-25T13:28:08.273Z,100.00
2022-09-25T13:33:11.835Z,100.00
2022-09-25T13:38:35.442Z,100.00
2022-09-25T13:43:38.802Z,100.00
2022-09-25T13:48:42.395Z,100.00
2022-09-25T13:53:45.969Z,100.00
2022-09-25T13:58:50.069Z,100.00
2022-09-25T14:03:53.721Z,100.00
2022-09-25T14:08:58.244Z,100.00
2022-09-25T14:14:01.990Z,100.00
2022-09-25T14:19:05.479Z,100.00
2022-09-25T14:24:09.116Z,100.00
2022-09-25T14:29:12.790Z,100.00
2022-09-25T14:34:16.576Z,100.00
2022-09-25T14:39:20.321Z,100.00
2022-09-25T14:44:25.958Z,100.00
2022-09-25T14:49:30.327Z,100.00
2022-09-25T14:54:36.790Z,100.00
2022-09-25T14:59:42.461Z,100.00
2022-09-25T15:04:46.268Z,100.00
2022-09-25T15:09:49.909Z,100.00
2022-09-25T15:14:53.537Z,100.00
2022-09-25T15:19:57.739Z,100.00
2022-09-25T15:25:01.349Z,100.00
2022-09-25T15:30:06.716Z,100.00
2022-09-25T15:35:10.163Z,100.00
2022-09-25T15:40:14.996Z,100.00
2022-09-25T15:45:19.355Z,100.00
2022-09-25T15:50:22.969Z,100.00
2022-09-25T15:55:27.091Z,100.00
2022-09-25T16:00:48.818Z,100.00
2022-09-25T16:05:55.533Z,100.00
2022-09-25T16:10:59.128Z,100.00
2022-09-25T16:16:02.604Z,100.00
2022-09-25T16:21:06.815Z,100.00
2022-09-25T16:26:11.372Z,100.00
2022-09-25T16:31:16.499Z,100.00
2022-09-25T16:36:20.209Z,100.00
2022-09-25T16:41:23.938Z,100.00
2022-09-25T16:46:28.388Z,100.00
2022-09-25T16:51:32.485Z,100.00
2022-09-25T16:56:36.347Z,100.00
2022-09-25T17:01:40.421Z,100.00
2022-09-25T17:06:47.848Z,100.00
2022-09-25T17:11:51.925Z,100.00
2022-09-25T17:16:55.481Z,100.00
2022-09-25T17:21:59.559Z,100.00
2022-09-25T17:27:03.455Z,100.00
2022-09-25T17:32:09.203Z,100.00
2022-09-25T17:37:12.962Z,100.00
2022-09-25T17:42:17.667Z,100.00
2022-09-25T17:47:22.393Z,100.00
2022-09-25T17:52:26.673Z,100.00
2022-09-25T17:57:30.686Z,100.00
2022-09-25T18:02:34.445Z,100.00
2022-09-25T18:07:47.363Z,100.00
2022-09-25T18:12:51.134Z,100.00
2022-09-25T18:17:56.349Z,100.00
2022-09-25T18:22:59.820Z,100.00
2022-09-25T18:28:03.923Z,100.00
2022-09-25T18:33:08.788Z,100.00
2022-09-25T18:38:12.604Z,100.00
2022-09-25T18:43:16.286Z,100.00
2022-09-25T18:48:19.688Z,100.00
2022-09-25T18:53:22.797Z,100.00
2022-09-25T18:58:26.538Z,100.00
2022-09-25T19:03:30.728Z,100.00
2022-09-25T19:08:34.371Z,100.00
2022-09-25T19:13:41.370Z,100.00
2022-09-25T19:18:45.680Z,100.00
2022-09-25T19:23:52.374Z,100.00
2022-09-25T19:28:55.662Z,100.00
2022-09-25T19:34:01.281Z,100.00
2022-09-25T19:39:05.074Z,100.00
2022-09-25T19:44:13.190Z,100.00
2022-09-25T19:49:16.835Z,100.00
2022-09-25T19:54:19.503Z,100.00
2022-09-25T19:59:22.248Z,100.00
2022-09-25T20:04:24.940Z,100.00
2022-09-25T20:09:27.614Z,100.00
2022-09-25T20:14:30.277Z,100.00
2022-09-25T20:19:33.077Z,100.00
2022-09-25T20:24:35.813Z,100.00
2022-09-25T20:29:38.714Z,100.00
2022-09-25T20:34:45.627Z,100.00
2022-09-25T20:39:48.330Z,100.00
2022-09-25T20:44:51.620Z,100.00
2022-09-25T20:49:54.359Z,100.00
2022-09-25T20:54:57.088Z,100.00
2022-09-25T21:00:01.833Z,100.00
2022-09-25T21:05:04.592Z,100.00
2022-09-25T21:10:07.267Z,100.00
2022-09-25T21:15:10.574Z,100.00
2022-09-25T21:20:13.473Z,100.00
2022-09-25T21:25:16.879Z,100.00
2022-09-25T21:30:19.621Z,100.00
2022-09-25T21:35:22.620Z,100.00
2022-09-25T21:40:25.767Z,100.00
2022-09-25T21:45:28.509Z,100.00
2022-09-25T21:50:31.202Z,100.00
2022-09-25T21:55:33.964Z,100.00
2022-09-25T22:00:36.625Z,100.00
2022-09-25T22:05:41.921Z,100.00
2022-09-25T22:10:45.325Z,100.00
2022-09-25T22:15:47.989Z,100.00
2022-09-25T22:20:55.150Z,100.00
2022-09-25T22:25:57.818Z,100.00
2022-09-25T22:31:00.576Z,100.00
2022-09-25T22:36:13.294Z,100.00
2022-09-25T22:41:16.069Z,100.00
2022-09-25T22:46:18.840Z,100.00
2022-09-25T22:51:21.565Z,100.00
2022-09-25T22:56:24.258Z,100.00
2022-09-25T23:01:27.352Z,100.00
2022-09-25T23:06:32.898Z,100.00
2022-09-25T23:11:35.640Z,100.00
2022-09-25T23:16:38.532Z,100.00
2022-09-25T23:21:41.333Z,100.00
2022-09-25T23:26:46.755Z,100.00
2022-09-25T23:31:49.674Z,100.00
2022-09-25T23:36:52.494Z,100.00
2022-09-25T23:41:55.233Z,100.00
2022-09-25T23:46:58.089Z,100.00
2022-09-25T23:52:00.918Z,100.00
2022-09-25T23:57:03.774Z,100.00
